VK2RZ Weather Reports


Display with metric or nautical units.
time (UTC)temp
F
wind
direction
speed
MPH
gust
MPH
rain 1hr
in
rain 24hr
in
rain mn
in
humidity
%
barometer
mb
20221001211807 51 262 3.0 4.0 0.00 0.31 0.03 9 1021.3
20221001210805 51 281 2.0 5.0 0.00 0.31 0.03 9 1021.3
20221001205801 50 249 3.0 5.0 0.00 0.31 0.03 9 1021.4
20221001204759 50 0 0.0 1.0 0.00 0.31 0.03 9 1021.3
20221001203757 50 200 2.0 3.0 0.00 0.31 0.03 9 1021.1
20221001202754 50 0 0.0 1.0 0.00 0.31 0.03 9 1021.3
20221001201752 50 239 1.0 5.0 0.00 0.31 0.03 9 1021.0
20221001200748 50 237 6.0 10.0 0.00 0.31 0.03 9 1020.9
20221001195745 51 249 8.0 12.0 0.00 0.31 0.03 8 1020.7
20221001194743 51 239 7.0 10.0 0.00 0.31 0.03 9 1020.4
20221001193740 51 245 8.0 12.0 0.00 0.31 0.03 9 1020.1
20221001192737 51 245 4.0 10.0 0.00 0.31 0.03 9 1020.1
20221001191735 50 238 7.0 12.0 0.00 0.31 0.03 9 1020.1
20221001190732 50 237 6.0 11.0 0.00 0.31 0.03 9 1020.1
20221001185728 50 221 6.0 11.0 0.00 0.31 0.03 9 1019.9
20221001184726 50 251 4.0 9.0 0.00 0.31 0.03 9 1019.8
20221001183723 50 254 8.0 10.0 0.00 0.31 0.03 9 1019.7
20221001182720 51 251 9.0 12.0 0.00 0.31 0.03 9 1019.7
20221001181718 51 249 6.0 10.0 0.00 0.31 0.03 9 1019.7
20221001180715 50 254 10.0 12.0 0.00 0.31 0.03 9 1019.9
20221001175710 50 241 5.0 10.0 0.00 0.31 0.03 9 1019.9
20221001174708 51 233 6.0 11.0 0.00 0.31 0.03 9 1019.9
20221001173706 51 241 5.0 13.0 0.00 0.31 0.03 9 1019.9
20221001172703 51 262 3.0 5.0 0.00 0.31 0.03 9 1019.9
20221001171701 51 262 3.0 7.0 0.00 0.31 0.03 9 1019.9
20221001170658 51 254 1.0 5.0 0.02 0.31 0.03 9 1019.9
20221001165652 52 253 2.0 5.0 0.02 0.31 0.03 8 1019.9
20221001164650 52 250 2.0 5.0 0.02 0.31 0.03 8 1020.1
20221001163647 52 253 2.0 4.0 0.02 0.31 0.03 8 1020.1
20221001162645 52 251 4.0 8.0 0.02 0.31 0.03 8 1020.2
20221001161642 52 249 4.0 5.0 0.01 0.30 0.02 8 1020.5
20221001160640 52 244 4.0 5.0 0.00 0.29 0.00 8 1020.6
20221001160348 52 0 0.0 6.0 0.00 0.29 0.00 8 1020.8
20221001155346 52 251 1.0 4.0 0.00 0.29 0.00 8 1020.8
20221001154343 52 257 5.0 7.0 0.00 0.29 0.00 8 1020.7
20221001153341 53 245 5.0 7.0 0.00 0.29 0.00 8 1020.8
20221001152332 53 226 3.0 8.0 0.00 0.29 0.00 8 1020.9
20221001151329 52 249 3.0 4.0 0.00 0.29 0.00 8 1021.0
20221001150327 52 0 0.0 5.0 0.00 0.29 0.00 8 1021.0
20221001145324 52 264 8.0 9.0 0.02 0.29 0.00 8 1021.3
20221001144322 52 235 5.0 10.0 0.07 0.29 0.00 8 1021.5
20221001143319 52 241 4.0 8.0 0.08 0.29 0.00 8 1021.6
20221001142314 52 243 3.0 3.0 0.07 0.28 0.00 8 1021.7
20221001141311 52 246 4.0 9.0 0.07 0.28 0.00 8 1021.7
20221001140308 52 262 4.0 5.0 0.07 0.28 0.00 8 1021.9
20221001135306 52 233 3.0 7.0 0.06 0.26 0.27 8 1022.2
20221001134303 52 238 3.0 13.0 0.01 0.22 0.23 8 1022.3
20221001133301 53 220 7.0 11.0 0.00 0.20 0.20 8 1022.3
20221001132258 53 241 6.0 12.0 0.00 0.20 0.20 8 1022.3
20221001131255 53 250 8.0 11.0 0.00 0.20 0.20 8 1022.4
20221001130250 53 253 3.0 6.0 0.00 0.20 0.20 8 1022.5
20221001125246 53 249 5.0 8.0 0.00 0.20 0.20 8 1022.5
20221001124242 53 246 3.0 5.0 0.00 0.20 0.20 8 1022.5
20221001123240 53 235 5.0 7.0 0.00 0.20 0.20 8 1022.5
20221001122235 54 254 3.0 4.0 0.00 0.20 0.20 8 1022.6
20221001121232 54 247 10.0 10.0 0.00 0.20 0.20 8 1022.7
20221001120229 53 257 2.0 5.0 0.00 0.20 0.20 8 1022.8
20221001115225 53 251 2.0 3.0 0.00 0.20 0.20 8 1022.8
20221001114223 53 251 1.0 3.0 0.00 0.20 0.20 8 1022.9
20221001113220 53 252 2.0 3.0 0.00 0.20 0.20 8 1022.9
20221001112217 53 234 2.0 3.0 0.00 0.20 0.20 8 1022.9
20221001111215 53 0 0.0 0.0 0.00 0.20 0.20 8 1023.0
20221001110211 53 0 0.0 0.0 0.00 0.20 0.20 8 1022.9
20221001105212 54 0 0.0 0.0 0.00 0.19 0.19 8 1023.0
20221001103159 54 0 0.0 0.0 0.00 0.19 0.19 8 1022.8
20221001102157 53 0 0.0 0.0 0.00 0.19 0.19 8 1022.8
20221001101152 53 291 1.0 2.0 0.00 0.19 0.19 8 1022.9
20221001100149 53 0 0.0 1.0 0.00 0.19 0.19 8 1022.9
20221001095147 53 0 0.0 1.0 0.00 0.19 0.19 8 1023.0
20221001094145 53 0 0.0 3.0 0.00 0.19 0.19 8 1022.9
20221001093142 53 0 0.0 0.0 0.00 0.18 0.18 8 1022.9
20221001092140 53 0 0.0 0.0 0.00 0.18 0.18 8 1022.9
20221001091134 52 0 0.0 1.0 0.00 0.18 0.18 9 1022.9
20221001044012 58 87 6.0 6.0 0.01 0.42 0.01 8 1022.3
20221001043009 57 126 3.0 3.0 0.01 0.42 0.01 8 1022.5
20221001042007 56 0 0.0 0.0 0.00 0.41 0.01 8 1022.4
20221001041001 58 203 5.0 10.0 0.00 0.40 0.00 7 1022.7
20221001035959 60 99 2.0 9.0 0.00 0.40 0.00 7 1022.6
20221001034956 60 185 2.0 12.0 0.00 0.40 0.00 7 1022.7
20221001033952 60 116 3.0 8.0 0.00 0.40 0.00 6 1022.9
20221001032950 61 109 3.0 10.0 0.00 0.40 0.00 6 1023.0
20221001031948 61 47 4.0 8.0 0.00 0.40 0.00 6 1023.1
20221001030945 61 196 4.0 9.0 0.00 0.40 0.00 6 1023.4
20221001025942 61 0 0.0 10.0 0.00 0.40 0.00 6 1023.5
20221001024940 61 93 2.0 9.0 0.00 0.40 0.00 6 1023.6
20221001023934 60 41 3.0 10.0 0.00 0.40 0.00 7 1023.6
20221001022932 59 156 6.0 9.0 0.00 0.40 0.00 7 1023.8
20221001021930 59 180 1.0 5.0 0.00 0.40 0.00 7 1023.8
20221001020927 57 189 2.0 4.0 0.00 0.40 0.00 7 1024.0
20221001015925 56 0 0.0 3.0 0.00 0.43 0.00 8 1024.3
20221001014922 56 160 1.0 5.0 0.00 0.51 0.00 8 1024.4
20221001013917 57 161 3.0 12.0 0.00 0.51 0.00 8 1024.4
20221001012914 58 161 10.0 17.0 0.00 0.51 0.00 7 1024.5
20221001011911 60 125 4.0 11.0 0.00 0.51 0.00 7 1024.4
20221001010906 59 119 9.0 11.0 0.00 0.51 0.00 7 1024.5
20221001005904 59 118 2.0 17.0 0.00 0.51 0.00 7 1024.7
20221001004902 62 97 6.0 11.0 0.00 0.51 0.00 6 1024.5
20221001003859 63 117 12.0 16.0 0.00 0.51 0.00 6 1024.4
20221001002857 62 114 5.0 12.0 0.00 0.51 0.00 6 1024.5
20221001001854 61 97 6.0 15.0 0.00 0.51 0.00 6 1024.6
20221001000850 61 112 4.0 11.0 0.00 0.51 0.00 6 1024.8
20220930235848 61 114 7.0 8.0 0.00 0.51 0.00 6 1024.9
20220930234845 61 147 5.0 14.0 0.00 0.54 0.00 6 1025.0
20220930233843 60 116 10.0 13.0 0.00 0.54 0.00 6 1025.1
20220930232841 59 165 9.0 11.0 0.00 0.54 0.00 7 1025.0
20220930231838 60 114 7.0 10.0 0.00 0.54 0.00 7 1025.2
20220930230832 60 141 2.0 10.0 0.00 0.54 0.00 6 1025.2
20220930225828 60 108 4.0 8.0 0.00 0.55 0.00 6 1025.0
20220930224825 60 151 8.0 10.0 0.00 0.55 0.00 7 1025.1
20220930223823 59 105 7.0 13.0 0.00 0.58 0.00 7 1025.1
20220930222820 60 125 7.0 13.0 0.00 0.59 0.00 6 1025.0
20220930221818 60 170 5.0 12.0 0.00 0.59 0.00 6 1025.0
20220930220815 61 175 8.0 13.0 0.00 0.59 0.00 6 1024.9
20220930215811 61 161 3.0 10.0 0.00 0.59 0.00 6 1024.8
20220930214808 61 131 3.0 13.0 0.00 0.59 0.00 6 1024.8
20220930213806 60 185 2.0 14.0 0.00 0.59 0.00 6 1024.8
20220930212804 60 114 4.0 9.0 0.00 0.60 0.00 6 1024.7